createdAt,value
2023-05-22T00:02:17.014Z,7.82
2023-05-22T00:04:46.733Z,7.00
2023-05-22T00:07:16.712Z,7.13
2023-05-22T00:09:44.693Z,7.35
2023-05-22T00:12:12.767Z,7.00
2023-05-22T00:14:40.875Z,6.80
2023-05-22T00:17:10.390Z,6.63
2023-05-22T00:19:38.671Z,6.60
2023-05-22T00:22:08.984Z,7.53
2023-05-22T00:24:39.167Z,7.57
2023-05-22T00:27:07.270Z,7.07
2023-05-22T00:29:35.777Z,7.05
2023-05-22T00:32:03.823Z,6.68
2023-05-22T00:34:33.343Z,6.53
2023-05-22T00:37:01.625Z,6.30
2023-05-22T00:39:31.535Z,7.00
2023-05-22T00:41:59.596Z,6.78
2023-05-22T00:44:29.949Z,6.80
2023-05-22T00:46:58.343Z,6.43
2023-05-22T00:49:26.660Z,6.57
2023-05-22T00:51:56.408Z,6.40
2023-05-22T00:54:24.942Z,6.30
2023-05-22T00:56:55.217Z,5.90
2023-05-22T00:59:23.504Z,5.97
2023-05-22T01:01:52.075Z,6.15
2023-05-22T01:04:20.946Z,6.47
2023-05-22T01:06:49.492Z,6.07
2023-05-22T01:09:20.185Z,5.93
2023-05-22T01:12:12.855Z,6.47
2023-05-22T01:14:48.161Z,6.05
2023-05-22T01:17:24.686Z,6.10
2023-05-22T01:20:06.825Z,5.90
2023-05-22T01:23:09.189Z,6.10
2023-05-22T01:26:20.630Z,6.18
2023-05-22T01:29:15.792Z,6.00
2023-05-22T01:31:49.629Z,6.57
2023-05-22T01:34:20.028Z,5.72
2023-05-22T01:36:51.895Z,6.03
2023-05-22T01:39:21.181Z,6.75
2023-05-22T01:41:49.560Z,6.05
2023-05-22T01:44:17.791Z,6.05
2023-05-22T01:46:47.260Z,6.78
2023-05-22T01:49:15.365Z,6.47
2023-05-22T01:51:52.967Z,6.18
2023-05-22T01:54:28.882Z,6.38
2023-05-22T01:57:02.860Z,5.68
2023-05-22T01:59:34.333Z,6.85
2023-05-22T02:02:07.675Z,7.30
2023-05-22T02:04:43.437Z,5.90
2023-05-22T02:07:13.499Z,5.50
2023-05-22T02:09:44.290Z,6.68
2023-05-22T02:12:13.588Z,5.90
2023-05-22T02:14:43.475Z,5.32
2023-05-22T02:17:12.807Z,5.15
2023-05-22T02:19:40.981Z,4.93
2023-05-22T02:22:09.901Z,5.47
2023-05-22T02:24:38.281Z,5.95
2023-05-22T02:27:12.909Z,5.70
2023-05-22T02:29:41.292Z,6.10
2023-05-22T02:32:09.667Z,6.35
2023-05-22T02:34:39.151Z,5.90
2023-05-22T02:37:07.137Z,5.88
2023-05-22T02:39:35.243Z,6.45
2023-05-22T02:42:03.668Z,6.22
2023-05-22T02:44:31.772Z,6.72
2023-05-22T02:46:59.932Z,6.20
2023-05-22T02:49:28.583Z,6.03
2023-05-22T02:52:00.203Z,6.22
2023-05-22T02:54:28.254Z,5.72
2023-05-22T02:56:56.868Z,6.03
2023-05-22T02:59:25.062Z,5.80
2023-05-22T03:01:54.393Z,5.80
2023-05-22T03:04:23.004Z,5.53
2023-05-22T03:06:51.362Z,6.22
2023-05-22T03:09:21.522Z,5.30
2023-05-22T03:11:49.628Z,5.57
2023-05-22T03:14:17.681Z,5.72
2023-05-22T03:16:45.749Z,6.68
2023-05-22T03:19:16.377Z,4.90
2023-05-22T03:21:45.036Z,4.93
2023-05-22T03:24:14.727Z,6.20
2023-05-22T03:26:44.160Z,5.75
2023-05-22T03:29:12.302Z,5.65
2023-05-22T03:31:40.320Z,6.00
2023-05-22T03:34:08.489Z,5.63
2023-05-22T03:36:38.012Z,5.97
2023-05-22T03:39:06.420Z,5.55
2023-05-22T03:41:34.584Z,6.05
2023-05-22T03:44:04.470Z,5.72
2023-05-22T03:46:32.561Z,6.20
2023-05-22T03:49:02.664Z,5.65
2023-05-22T03:51:31.506Z,5.55
2023-05-22T03:53:59.518Z,6.15
2023-05-22T03:56:27.588Z,5.50
2023-05-22T03:58:56.149Z,5.45
2023-05-22T04:01:27.574Z,5.55
2023-05-22T04:03:55.631Z,5.72
2023-05-22T04:06:23.733Z,5.93
2023-05-22T04:08:52.100Z,5.70
2023-05-22T04:11:22.821Z,5.30
2023-05-22T04:13:52.116Z,5.95
2023-05-22T04:16:20.989Z,5.97
2023-05-22T04:18:50.561Z,5.80
2023-05-22T04:21:19.160Z,5.88
2023-05-22T04:23:47.621Z,6.57
2023-05-22T04:26:15.899Z,6.38
2023-05-22T04:28:46.368Z,6.55
2023-05-22T04:31:14.762Z,6.60
2023-05-22T04:33:42.829Z,5.85
2023-05-22T04:36:13.049Z,6.43
2023-05-22T04:38:41.430Z,5.85
2023-05-22T04:41:10.438Z,6.80
2023-05-22T04:43:39.879Z,6.40
2023-05-22T04:46:08.447Z,6.13
2023-05-22T04:48:37.092Z,5.95
2023-05-22T04:51:12.975Z,5.97
2023-05-22T04:53:41.019Z,5.97
2023-05-22T04:56:09.285Z,6.90
2023-05-22T04:58:38.271Z,6.45
2023-05-22T05:01:06.720Z,5.85
2023-05-22T05:03:35.498Z,6.28
2023-05-22T05:06:03.577Z,5.95
2023-05-22T05:08:33.222Z,5.85
2023-05-22T05:11:01.255Z,5.70
2023-05-22T05:13:29.284Z,6.65
2023-05-22T05:15:58.622Z,5.90
2023-05-22T05:18:28.122Z,6.45
2023-05-22T05:20:56.261Z,6.75
2023-05-22T05:23:24.283Z,5.22
2023-05-22T05:25:53.765Z,5.95
2023-05-22T05:28:21.805Z,6.30
2023-05-22T05:30:49.847Z,6.05
2023-05-22T05:33:21.725Z,6.10
2023-05-22T05:35:52.894Z,5.95
2023-05-22T05:38:21.133Z,6.07
2023-05-22T05:40:49.646Z,6.25
2023-05-22T05:43:20.155Z,7.00
2023-05-22T05:45:48.411Z,6.28
2023-05-22T05:48:16.635Z,6.03
2023-05-22T05:50:44.957Z,6.15
2023-05-22T05:53:13.005Z,5.82
2023-05-22T05:55:41.641Z,6.05
2023-05-22T05:58:10.268Z,5.18
2023-05-22T06:00:42.524Z,5.35
2023-05-22T06:03:11.085Z,6.05
2023-05-22T06:05:39.771Z,5.65
2023-05-22T06:08:08.652Z,5.40
2023-05-22T06:10:37.396Z,5.90
2023-05-22T06:13:05.643Z,6.43
2023-05-22T06:15:33.784Z,6.50
2023-05-22T06:18:03.861Z,6.32
2023-05-22T06:20:31.897Z,5.57
2023-05-22T06:23:00.322Z,6.15
2023-05-22T06:25:30.091Z,5.95
2023-05-22T06:27:58.118Z,5.65
2023-05-22T06:30:39.055Z,5.22
2023-05-22T06:33:14.611Z,6.97
2023-05-22T06:35:43.103Z,5.90
2023-05-22T06:38:11.097Z,6.15
2023-05-22T06:40:39.682Z,6.50
2023-05-22T06:43:07.821Z,5.68
2023-05-22T06:45:37.427Z,5.90
2023-05-22T06:48:06.303Z,5.68
2023-05-22T06:50:36.062Z,6.00
2023-05-22T06:53:04.105Z,5.57
2023-05-22T06:55:32.321Z,5.05
2023-05-22T06:58:01.004Z,5.47
2023-05-22T07:00:29.090Z,5.25
2023-05-22T07:02:57.501Z,5.13
2023-05-22T07:05:26.247Z,5.68
2023-05-22T07:07:55.674Z,5.97
2023-05-22T07:10:25.297Z,5.93
2023-05-22T07:12:53.277Z,5.25
2023-05-22T07:15:21.303Z,5.38
2023-05-22T07:17:49.645Z,6.50
2023-05-22T07:20:18.251Z,5.72
2023-05-22T07:22:46.252Z,5.88
2023-05-22T07:25:15.974Z,4.82
2023-05-22T07:27:44.056Z,5.32
2023-05-22T07:30:13.048Z,6.10
2023-05-22T07:32:41.197Z,6.45
2023-05-22T07:35:11.689Z,5.63
2023-05-22T07:37:39.710Z,6.53
2023-05-22T07:40:09.763Z,7.07
2023-05-22T07:42:39.568Z,6.97
2023-05-22T07:45:08.555Z,6.25
2023-05-22T07:47:36.767Z,7.00
2023-05-22T07:50:05.751Z,7.53
2023-05-22T07:52:33.825Z,7.82
2023-05-22T07:55:02.146Z,7.15
2023-05-22T07:57:30.654Z,6.70
2023-05-22T08:00:00.534Z,6.93
2023-05-22T08:02:28.627Z,7.47
2023-05-22T08:04:56.901Z,7.10
2023-05-22T08:07:25.091Z,7.32
2023-05-22T08:09:53.279Z,7.35
2023-05-22T08:12:21.418Z,7.97
2023-05-22T08:14:49.475Z,8.15
2023-05-22T08:17:19.429Z,7.55
2023-05-22T08:19:47.808Z,8.45
2023-05-22T08:22:15.982Z,8.57
2023-05-22T08:24:44.387Z,8.60
2023-05-22T08:27:12.363Z,9.27
2023-05-22T08:29:40.668Z,7.95
2023-05-22T08:32:09.319Z,8.00
2023-05-22T08:34:40.125Z,7.53
2023-05-22T08:37:09.695Z,9.23
2023-05-22T08:39:37.825Z,8.63
2023-05-22T08:42:07.274Z,7.68
2023-05-22T08:44:35.570Z,9.27
2023-05-22T08:47:05.476Z,8.20
2023-05-22T08:49:33.634Z,8.65
2023-05-22T08:52:07.221Z,7.30
2023-05-22T08:54:40.850Z,7.97
2023-05-22T08:57:09.518Z,9.00
2023-05-22T08:59:39.929Z,10.48
2023-05-22T09:02:09.900Z,9.45
2023-05-22T09:04:38.251Z,8.77
2023-05-22T09:07:09.086Z,9.43
2023-05-22T09:09:38.171Z,9.25
2023-05-22T09:12:09.090Z,9.10
2023-05-22T09:14:40.906Z,10.27
2023-05-22T09:17:11.362Z,9.02
2023-05-22T09:19:44.135Z,9.20
2023-05-22T09:22:14.050Z,8.60
2023-05-22T09:24:43.168Z,8.65
2023-05-22T09:27:12.207Z,9.80
2023-05-22T09:29:50.525Z,8.40
2023-05-22T09:32:18.857Z,9.77
2023-05-22T09:34:47.900Z,9.05
2023-05-22T09:37:18.139Z,8.48
2023-05-22T09:39:47.441Z,7.65
2023-05-22T09:42:17.985Z,8.73
2023-05-22T09:44:50.182Z,8.38
2023-05-22T09:47:18.318Z,7.65
2023-05-22T09:49:47.108Z,8.57
2023-05-22T09:52:15.837Z,8.30
2023-05-22T09:54:53.838Z,8.77
2023-05-22T09:57:23.033Z,8.82
2023-05-22T09:59:54.556Z,8.20
2023-05-22T10:02:24.056Z,9.13
2023-05-22T10:04:53.093Z,8.93
2023-05-22T10:07:24.202Z,9.20
2023-05-22T10:09:58.023Z,8.93
2023-05-22T10:12:29.807Z,9.30
2023-05-22T10:14:58.559Z,9.50
2023-05-22T10:17:27.233Z,9.77
2023-05-22T10:19:58.969Z,9.32
2023-05-22T10:22:30.430Z,9.75
2023-05-22T10:25:00.955Z,8.38
2023-05-22T10:27:29.150Z,8.52
2023-05-22T10:30:04.094Z,9.30
2023-05-22T10:32:40.165Z,9.23
2023-05-22T10:35:18.484Z,10.52
2023-05-22T10:37:51.191Z,8.93
2023-05-22T10:40:30.360Z,9.95
2023-05-22T10:43:00.336Z,10.13
2023-05-22T10:45:29.694Z,10.80
2023-05-22T10:48:08.450Z,10.45
2023-05-22T10:50:37.529Z,9.38
2023-05-22T10:53:24.604Z,11.20
2023-05-22T10:55:55.668Z,9.88
2023-05-22T10:58:28.484Z,9.70
2023-05-22T11:01:16.710Z,11.02
2023-05-22T11:03:56.022Z,9.35
2023-05-22T11:06:35.593Z,10.00
2023-05-22T11:09:27.950Z,9.73
2023-05-22T11:15:00.247Z,10.02
2023-05-22T11:17:29.697Z,10.18
2023-05-22T11:20:05.340Z,10.15
2023-05-22T11:22:35.617Z,10.07
2023-05-22T11:25:09.374Z,9.27
2023-05-22T11:27:39.114Z,9.90
2023-05-22T11:30:10.721Z,11.65
2023-05-22T11:32:39.622Z,9.52
2023-05-22T11:35:09.270Z,12.05
2023-05-22T11:37:41.026Z,10.93
2023-05-22T11:40:10.814Z,12.07
2023-05-22T11:42:39.221Z,10.90
2023-05-22T11:45:10.078Z,10.93
2023-05-22T11:47:38.701Z,11.63
2023-05-22T11:50:09.897Z,11.10
2023-05-22T11:52:39.587Z,11.45
2023-05-22T11:55:09.136Z,11.15
2023-05-22T11:57:38.253Z,10.93
2023-05-22T12:00:10.646Z,16.35
2023-05-22T12:02:39.061Z,12.90
2023-05-22T12:05:10.204Z,13.38
2023-05-22T12:07:38.664Z,12.20
2023-05-22T12:10:08.141Z,11.70
2023-05-22T12:12:36.310Z,10.77
2023-05-22T12:15:08.755Z,10.70
2023-05-22T12:17:38.769Z,11.15
2023-05-22T12:20:08.706Z,12.00
2023-05-22T12:22:42.939Z,10.00
2023-05-22T12:25:15.385Z,11.63
2023-05-22T12:27:44.805Z,10.52
2023-05-22T12:30:16.693Z,11.40
2023-05-22T12:32:49.897Z,10.50
2023-05-22T12:35:19.808Z,11.73
2023-05-22T12:37:51.325Z,10.85
2023-05-22T12:40:19.852Z,10.32
2023-05-22T12:42:49.406Z,11.73
2023-05-22T12:45:19.110Z,9.65
2023-05-22T12:47:47.343Z,9.43
2023-05-22T12:50:15.596Z,9.05
2023-05-22T12:52:44.112Z,10.00
2023-05-22T12:55:12.688Z,8.27
2023-05-22T12:57:40.777Z,9.52
2023-05-22T13:00:10.211Z,8.68
2023-05-22T13:02:39.751Z,8.70
2023-05-22T13:05:08.506Z,9.55
2023-05-22T13:07:36.964Z,8.18
2023-05-22T13:10:06.083Z,8.88
2023-05-22T13:12:34.280Z,8.82
2023-05-22T13:15:02.714Z,9.13
2023-05-22T13:17:32.947Z,7.97
2023-05-22T13:20:02.665Z,10.15
2023-05-22T13:22:30.753Z,9.23
2023-05-22T13:24:58.924Z,9.27
2023-05-22T13:27:27.471Z,8.38
2023-05-22T13:29:56.032Z,8.50
2023-05-22T13:32:24.166Z,8.70
2023-05-22T13:34:52.352Z,8.90
2023-05-22T13:37:22.196Z,9.27
2023-05-22T13:39:50.337Z,10.55
2023-05-22T13:42:18.484Z,8.95
2023-05-22T13:44:46.781Z,10.13
2023-05-22T13:47:14.966Z,8.43
2023-05-22T13:49:43.122Z,9.57
2023-05-22T13:52:11.503Z,11.00
2023-05-22T13:54:40.955Z,10.00
2023-05-22T13:57:09.024Z,9.80
2023-05-22T13:59:37.115Z,11.13
2023-05-22T14:02:05.714Z,12.02
2023-05-22T14:04:34.118Z,10.20
2023-05-22T14:07:02.390Z,10.70
2023-05-22T14:09:31.391Z,11.25
2023-05-22T14:12:00.888Z,10.88
2023-05-22T14:14:28.985Z,11.38
2023-05-22T14:16:57.056Z,11.00
2023-05-22T14:19:25.669Z,11.52
2023-05-22T14:21:53.990Z,11.32
2023-05-22T14:24:22.276Z,10.50
2023-05-22T14:26:51.169Z,11.20
2023-05-22T14:29:21.046Z,11.48
2023-05-22T14:31:51.959Z,10.82
2023-05-22T14:34:20.346Z,10.85
2023-05-22T14:36:48.878Z,12.30
2023-05-22T14:39:16.952Z,12.10
2023-05-22T14:41:44.975Z,12.93
2023-05-22T14:44:13.294Z,13.98
2023-05-22T14:46:42.830Z,11.52
2023-05-22T14:49:10.998Z,12.65
2023-05-22T14:51:39.209Z,12.73
2023-05-22T14:54:08.012Z,12.73
2023-05-22T14:56:36.016Z,12.13
2023-05-22T14:59:04.067Z,12.95
2023-05-22T15:01:32.681Z,12.07
2023-05-22T15:04:02.624Z,14.05
2023-05-22T15:06:31.060Z,13.68
2023-05-22T15:08:59.145Z,13.38
2023-05-22T15:11:27.634Z,14.43
2023-05-22T15:13:56.202Z,14.25
2023-05-22T15:16:26.012Z,13.00
2023-05-22T15:18:54.972Z,11.95
2023-05-22T15:21:25.763Z,13.25
2023-05-22T15:23:53.793Z,13.00
2023-05-22T15:26:23.040Z,12.65
2023-05-22T15:28:51.278Z,12.32
2023-05-22T15:31:19.876Z,12.05
2023-05-22T15:33:48.025Z,13.43
2023-05-22T15:36:16.126Z,13.18
2023-05-22T15:38:45.559Z,13.70
2023-05-22T15:41:14.265Z,13.05
2023-05-22T15:43:42.720Z,12.98
2023-05-22T15:46:12.365Z,10.75
2023-05-22T15:48:40.506Z,11.25
2023-05-22T15:51:09.967Z,11.73
2023-05-22T15:53:38.087Z,10.98
2023-05-22T15:56:08.447Z,12.45
2023-05-22T15:58:36.654Z,11.32
2023-05-22T16:01:04.862Z,12.48
2023-05-22T16:03:33.170Z,11.45
2023-05-22T16:06:01.413Z,11.73
2023-05-22T16:08:29.425Z,11.82
2023-05-22T16:11:00.602Z,11.32
2023-05-22T16:13:30.432Z,11.15
2023-05-22T16:15:58.597Z,11.05
2023-05-22T16:18:26.778Z,10.63
2023-05-22T16:20:57.211Z,12.35
2023-05-22T16:23:25.259Z,10.50
2023-05-22T16:25:53.268Z,11.10
2023-05-22T16:28:21.797Z,10.85
2023-05-22T16:30:51.343Z,10.02
2023-05-22T16:33:19.859Z,9.00
2023-05-22T16:35:48.083Z,9.57
2023-05-22T16:38:16.216Z,11.30
2023-05-22T16:40:44.369Z,10.25
2023-05-22T16:43:13.840Z,9.30
2023-05-22T16:46:01.749Z,9.73
2023-05-22T16:48:34.318Z,10.13
2023-05-22T16:51:26.554Z,10.10
2023-05-22T16:54:00.660Z,8.82
2023-05-22T16:56:28.814Z,10.30
2023-05-22T16:58:56.871Z,9.88
2023-05-22T17:01:27.404Z,9.60
2023-05-22T17:03:56.135Z,8.90
2023-05-22T17:06:24.393Z,9.63
2023-05-22T17:08:52.816Z,9.88
2023-05-22T17:11:21.101Z,9.80
2023-05-22T17:13:49.299Z,10.00
2023-05-22T17:16:17.726Z,9.75
2023-05-22T17:18:47.514Z,9.43
2023-05-22T17:21:17.433Z,9.93
2023-05-22T17:23:45.756Z,9.70
2023-05-22T17:26:14.349Z,9.00
2023-05-22T17:28:42.695Z,8.98
2023-05-22T17:31:10.888Z,9.63
2023-05-22T17:33:39.090Z,8.80
2023-05-22T17:36:08.779Z,9.00
2023-05-22T17:38:37.068Z,8.95
2023-05-22T17:41:05.190Z,9.02
2023-05-22T17:43:35.346Z,9.32
2023-05-22T17:46:03.898Z,9.60
2023-05-22T17:48:32.113Z,9.18
2023-05-22T17:51:00.573Z,8.80
2023-05-22T17:53:34.004Z,9.38
2023-05-22T17:56:02.826Z,8.40
2023-05-22T17:58:30.913Z,8.18
2023-05-22T18:00:59.175Z,8.55
2023-05-22T18:03:27.530Z,8.13
2023-05-22T18:05:55.983Z,8.05
2023-05-22T18:08:24.014Z,8.02
2023-05-22T18:10:55.758Z,8.70
2023-05-22T18:13:23.863Z,8.88
2023-05-22T18:15:52.296Z,8.85
2023-05-22T18:18:22.392Z,7.93
2023-05-22T18:20:52.759Z,9.20
2023-05-22T18:23:21.162Z,7.68
2023-05-22T18:25:49.438Z,8.00
2023-05-22T18:28:19.950Z,9.15
2023-05-22T18:30:49.491Z,8.57
2023-05-22T18:33:17.854Z,9.38
2023-05-22T18:35:45.865Z,9.18
2023-05-22T18:38:14.150Z,8.75
2023-05-22T18:40:42.454Z,8.82
2023-05-22T18:43:10.768Z,7.80
2023-05-22T18:45:40.531Z,9.02
2023-05-22T18:48:08.592Z,7.38
2023-05-22T18:50:36.979Z,8.93
2023-05-22T18:53:07.151Z,9.30
2023-05-22T18:55:35.407Z,9.23
2023-05-22T18:58:03.820Z,8.85
2023-05-22T19:00:32.000Z,8.82
2023-05-22T19:03:02.259Z,8.15
2023-05-22T19:05:30.657Z,7.55
2023-05-22T19:07:58.865Z,8.18
2023-05-22T19:10:26.971Z,9.13
2023-05-22T19:12:55.080Z,9.43
2023-05-22T19:15:23.186Z,9.00
2023-05-22T19:17:51.552Z,9.90
2023-05-22T19:20:21.165Z,9.25
2023-05-22T19:22:50.859Z,9.68
2023-05-22T19:25:19.000Z,9.75
2023-05-22T19:27:47.536Z,10.35
2023-05-22T19:30:16.593Z,9.45
2023-05-22T19:32:44.649Z,9.43
2023-05-22T19:35:12.923Z,9.73
2023-05-22T19:37:42.497Z,10.52
2023-05-22T19:40:11.375Z,9.95
2023-05-22T19:42:39.933Z,10.73
2023-05-22T19:45:09.479Z,10.80
2023-05-22T19:47:37.921Z,10.00
2023-05-22T19:50:08.286Z,9.52
2023-05-22T19:52:36.411Z,10.80
2023-05-22T19:55:07.031Z,11.68
2023-05-22T19:57:35.127Z,10.13
2023-05-22T20:00:07.520Z,11.68
2023-05-22T20:02:35.673Z,11.55
2023-05-22T20:05:04.371Z,12.80
2023-05-22T20:07:34.240Z,11.57
2023-05-22T20:10:02.249Z,12.88
2023-05-22T20:12:31.974Z,11.18
2023-05-22T20:15:00.196Z,11.00
2023-05-22T20:17:28.505Z,11.98
2023-05-22T20:19:57.552Z,10.35
2023-05-22T20:22:25.766Z,10.35
2023-05-22T20:24:54.027Z,11.23
2023-05-22T20:27:22.117Z,10.70
2023-05-22T20:29:51.646Z,12.35
2023-05-22T20:32:19.687Z,10.63
2023-05-22T20:34:47.780Z,11.65
2023-05-22T20:37:15.845Z,10.18
2023-05-22T20:39:44.260Z,11.73
2023-05-22T20:42:16.972Z,9.88
2023-05-22T20:44:46.263Z,11.00
2023-05-22T20:47:15.613Z,11.15
2023-05-22T20:49:43.667Z,10.57
2023-05-22T20:52:13.574Z,10.40
2023-05-22T20:54:41.980Z,10.25
2023-05-22T20:57:09.978Z,9.30
2023-05-22T20:59:38.410Z,11.75
2023-05-22T21:02:07.311Z,11.98
2023-05-22T21:04:36.775Z,11.13
2023-05-22T21:07:04.978Z,11.65
2023-05-22T21:09:33.157Z,12.75
2023-05-22T21:12:01.416Z,12.38
2023-05-22T21:14:29.603Z,11.82
2023-05-22T21:16:57.721Z,12.05
2023-05-22T21:19:25.816Z,11.93
2023-05-22T21:21:55.242Z,12.27
2023-05-22T21:24:23.276Z,11.80
2023-05-22T21:26:51.467Z,11.00
2023-05-22T21:29:19.475Z,12.40
2023-05-22T21:31:47.512Z,11.48
2023-05-22T21:34:15.597Z,12.80
2023-05-22T21:36:43.711Z,14.75
2023-05-22T21:39:13.306Z,15.05
2023-05-22T21:41:41.375Z,16.00
2023-05-22T21:44:10.070Z,14.48
2023-05-22T21:46:38.228Z,15.07
2023-05-22T21:49:07.433Z,13.75
2023-05-22T21:51:35.636Z,12.43
2023-05-22T21:54:03.644Z,11.93
2023-05-22T21:56:33.012Z,10.95
2023-05-22T21:59:01.147Z,10.23
2023-05-22T22:01:29.266Z,10.45
2023-05-22T22:03:57.502Z,9.13
2023-05-22T22:06:25.699Z,9.68
2023-05-22T22:08:54.049Z,9.60
2023-05-22T22:11:22.563Z,9.15
2023-05-22T22:13:52.335Z,9.38
2023-05-22T22:16:22.084Z,8.50
2023-05-22T22:18:51.154Z,10.20
2023-05-22T22:21:19.286Z,9.75
2023-05-22T22:23:47.269Z,9.13
2023-05-22T22:26:15.324Z,9.50
2023-05-22T22:28:43.332Z,9.35
2023-05-22T22:31:12.679Z,9.90
2023-05-22T22:33:40.635Z,9.15
2023-05-22T22:36:09.085Z,9.15
2023-05-22T22:38:38.431Z,10.48
2023-05-22T22:41:08.738Z,9.38
2023-05-22T22:43:36.930Z,10.55
2023-05-22T22:46:04.977Z,9.35
2023-05-22T22:48:34.457Z,11.48
2023-05-22T22:51:02.593Z,9.43
2023-05-22T22:53:31.203Z,10.02
2023-05-22T22:55:59.368Z,10.50
2023-05-22T22:58:27.448Z,10.15
2023-05-22T23:00:55.573Z,10.27
2023-05-22T23:03:23.769Z,9.70
2023-05-22T23:05:53.213Z,10.55
2023-05-22T23:08:21.198Z,10.02
2023-05-22T23:10:49.199Z,9.82
2023-05-22T23:13:17.616Z,10.13
2023-05-22T23:15:45.786Z,9.88
2023-05-22T23:18:14.214Z,10.70
2023-05-22T23:20:42.271Z,9.98
2023-05-22T23:23:11.682Z,9.90
2023-05-22T23:25:40.102Z,9.63
2023-05-22T23:28:08.464Z,10.20
2023-05-22T23:30:36.436Z,8.77
2023-05-22T23:33:06.131Z,7.47
2023-05-22T23:35:34.135Z,7.55
2023-05-22T23:38:02.154Z,6.22
2023-05-22T23:40:31.895Z,5.82
2023-05-22T23:42:59.932Z,5.65
2023-05-22T23:45:28.057Z,5.57
2023-05-22T23:47:56.313Z,5.22
2023-05-22T23:50:24.907Z,4.68
2023-05-22T23:52:53.212Z,4.50
2023-05-22T23:55:21.584Z,5.10
2023-05-22T23:57:51.040Z,4.80
